sensor_id;sensor_type;location;lat;lon;timestamp;pressure;altitude;pressure_sealevel;temperature;humidity
41945;BME280;63122;52.424;13.458;2022-09-09T00:01:27;100341.75;;;18.10;74.56
41945;BME280;63122;52.424;13.458;2022-09-09T00:04:13;100343.00;;;17.94;75.08
41945;BME280;63122;52.424;13.458;2022-09-09T00:06:57;100357.59;;;17.84;74.97
41945;BME280;63122;52.424;13.458;2022-09-09T00:09:38;100355.16;;;17.49;76.35
41945;BME280;63122;52.424;13.458;2022-09-09T00:12:15;100354.97;;;17.58;75.64
41945;BME280;63122;52.424;13.458;2022-09-09T00:14:52;100347.16;;;17.63;75.66
41945;BME280;63122;52.424;13.458;2022-09-09T00:17:33;100345.50;;;17.55;75.97
41945;BME280;63122;52.424;13.458;2022-09-09T00:20:13;100341.63;;;17.37;76.60
41945;BME280;63122;52.424;13.458;2022-09-09T00:22:57;100344.91;;;17.46;76.08
41945;BME280;63122;52.424;13.458;2022-09-09T00:25:37;100343.25;;;17.25;77.34
41945;BME280;63122;52.424;13.458;2022-09-09T00:28:23;100333.00;;;17.35;76.74
41945;BME280;63122;52.424;13.458;2022-09-09T00:31:11;100336.91;;;17.19;77.29
41945;BME280;63122;52.424;13.458;2022-09-09T00:33:45;100331.97;;;17.23;77.16
41945;BME280;63122;52.424;13.458;2022-09-09T00:36:27;100319.06;;;17.20;77.55
41945;BME280;63122;52.424;13.458;2022-09-09T00:39:00;100329.28;;;17.03;77.82
41945;BME280;63122;52.424;13.458;2022-09-09T00:41:43;100330.53;;;17.34;76.03
41945;BME280;63122;52.424;13.458;2022-09-09T00:44:27;100327.28;;;17.45;75.57
41945;BME280;63122;52.424;13.458;2022-09-09T00:47:17;100325.41;;;17.46;75.26
41945;BME280;63122;52.424;13.458;2022-09-09T00:50:00;100329.50;;;17.55;74.61
41945;BME280;63122;52.424;13.458;2022-09-09T00:52:43;100339.97;;;17.56;74.53
41945;BME280;63122;52.424;13.458;2022-09-09T00:55:26;100329.50;;;17.28;75.89
41945;BME280;63122;52.424;13.458;2022-09-09T00:58:02;100335.88;;;17.40;74.81
41945;BME280;63122;52.424;13.458;2022-09-09T01:00:41;100327.69;;;17.55;74.35
41945;BME280;63122;52.424;13.458;2022-09-09T01:03:22;100329.75;;;17.33;74.88
41945;BME280;63122;52.424;13.458;2022-09-09T01:06:02;100333.22;;;17.47;74.27
41945;BME280;63122;52.424;13.458;2022-09-09T01:09:02;100340.78;;;17.30;74.67
41945;BME280;63122;52.424;13.458;2022-09-09T01:11:43;100339.16;;;17.29;74.48
41945;BME280;63122;52.424;13.458;2022-09-09T01:14:29;100340.59;;;17.11;75.10
41945;BME280;63122;52.424;13.458;2022-09-09T01:17:07;100339.28;;;16.94;76.09
41945;BME280;63122;52.424;13.458;2022-09-09T01:19:49;100338.47;;;16.93;76.37
41945;BME280;63122;52.424;13.458;2022-09-09T01:22:32;100342.59;;;17.03;75.63
41945;BME280;63122;52.424;13.458;2022-09-09T01:25:19;100343.00;;;17.00;75.78
41945;BME280;63122;52.424;13.458;2022-09-09T01:27:57;100345.91;;;17.25;74.56
41945;BME280;63122;52.424;13.458;2022-09-09T01:30:28;100337.06;;;17.11;75.88
41945;BME280;63122;52.424;13.458;2022-09-09T01:32:59;100341.41;;;17.05;75.17
41945;BME280;63122;52.424;13.458;2022-09-09T01:35:37;100338.25;;;16.95;75.76
41945;BME280;63122;52.424;13.458;2022-09-09T01:38:08;100334.97;;;16.93;75.24
41945;BME280;63122;52.424;13.458;2022-09-09T01:40:39;100330.00;;;16.69;76.21
41945;BME280;63122;52.424;13.458;2022-09-09T01:43:12;100334.63;;;17.03;75.24
41945;BME280;63122;52.424;13.458;2022-09-09T01:45:45;100336.06;;;17.12;74.50
41945;BME280;63122;52.424;13.458;2022-09-09T01:48:19;100331.75;;;17.04;74.43
41945;BME280;63122;52.424;13.458;2022-09-09T01:50:51;100329.38;;;16.74;76.00
41945;BME280;63122;52.424;13.458;2022-09-09T01:53:22;100328.44;;;16.95;75.39
41945;BME280;63122;52.424;13.458;2022-09-09T01:56:01;100338.25;;;16.95;74.80
41945;BME280;63122;52.424;13.458;2022-09-09T01:58:48;100335.41;;;16.96;74.70
41945;BME280;63122;52.424;13.458;2022-09-09T02:01:28;100339.03;;;16.82;75.11
41945;BME280;63122;52.424;13.458;2022-09-09T02:04:10;100337.38;;;16.74;75.25
41945;BME280;63122;52.424;13.458;2022-09-09T02:06:46;100341.28;;;16.72;75.75
41945;BME280;63122;52.424;13.458;2022-09-09T02:09:22;100341.06;;;16.66;75.59
41945;BME280;63122;52.424;13.458;2022-09-09T02:11:58;100348.59;;;16.56;76.14
41945;BME280;63122;52.424;13.458;2022-09-09T02:14:37;100353.50;;;16.52;76.01
41945;BME280;63122;52.424;13.458;2022-09-09T02:17:12;100348.19;;;16.59;75.98
41945;BME280;63122;52.424;13.458;2022-09-09T02:19:46;100339.47;;;16.30;77.59
41945;BME280;63122;52.424;13.458;2022-09-09T02:22:33;100349.19;;;16.51;77.04
41945;BME280;63122;52.424;13.458;2022-09-09T02:25:15;100345.97;;;16.69;75.97
41945;BME280;63122;52.424;13.458;2022-09-09T02:27:47;100337.59;;;16.73;75.37
41945;BME280;63122;52.424;13.458;2022-09-09T02:30:21;100340.00;;;16.61;75.94
41945;BME280;63122;52.424;13.458;2022-09-09T02:32:54;100347.16;;;16.60;75.42
41945;BME280;63122;52.424;13.458;2022-09-09T02:35:31;100343.47;;;16.54;75.67
41945;BME280;63122;52.424;13.458;2022-09-09T02:38:12;100347.97;;;16.54;75.61
41945;BME280;63122;52.424;13.458;2022-09-09T02:40:47;100341.22;;;16.51;75.50
41945;BME280;63122;52.424;13.458;2022-09-09T02:43:19;100335.09;;;16.58;75.63
41945;BME280;63122;52.424;13.458;2022-09-09T02:45:58;100329.91;;;16.43;75.36
41945;BME280;63122;52.424;13.458;2022-09-09T02:48:36;100333.25;;;16.65;74.88
41945;BME280;63122;52.424;13.458;2022-09-09T02:51:18;100342.63;;;16.54;75.19
41945;BME280;63122;52.424;13.458;2022-09-09T02:54:01;100340.41;;;16.58;74.97
41945;BME280;63122;52.424;13.458;2022-09-09T02:56:40;100346.16;;;16.61;74.74
41945;BME280;63122;52.424;13.458;2022-09-09T02:59:13;100335.91;;;16.65;74.48
41945;BME280;63122;52.424;13.458;2022-09-09T03:01:46;100341.63;;;16.48;75.12
41945;BME280;63122;52.424;13.458;2022-09-09T03:04:16;100345.25;;;16.40;75.51
41945;BME280;63122;52.424;13.458;2022-09-09T03:06:49;100348.72;;;16.41;75.24
41945;BME280;63122;52.424;13.458;2022-09-09T03:09:19;100347.81;;;16.62;74.34
41945;BME280;63122;52.424;13.458;2022-09-09T03:11:49;100353.03;;;16.35;75.38
41945;BME280;63122;52.424;13.458;2022-09-09T03:14:19;100362.28;;;16.11;76.07
41945;BME280;63122;52.424;13.458;2022-09-09T03:16:54;100361.84;;;16.43;74.93
41945;BME280;63122;52.424;13.458;2022-09-09T03:19:25;100357.09;;;16.38;75.15
41945;BME280;63122;52.424;13.458;2022-09-09T03:21:55;100366.06;;;16.23;75.41
41945;BME280;63122;52.424;13.458;2022-09-09T03:24:25;100368.56;;;16.03;76.31
41945;BME280;63122;52.424;13.458;2022-09-09T03:26:55;100370.72;;;16.15;75.27
41945;BME280;63122;52.424;13.458;2022-09-09T03:29:25;100365.00;;;16.18;75.81
41945;BME280;63122;52.424;13.458;2022-09-09T03:31:58;100365.09;;;16.38;74.86
41945;BME280;63122;52.424;13.458;2022-09-09T03:34:29;100366.06;;;16.30;75.10
41945;BME280;63122;52.424;13.458;2022-09-09T03:36:58;100366.00;;;16.17;75.42
41945;BME280;63122;52.424;13.458;2022-09-09T03:39:28;100365.63;;;16.20;75.19
41945;BME280;63122;52.424;13.458;2022-09-09T03:41:59;100370.31;;;16.18;75.24
41945;BME280;63122;52.424;13.458;2022-09-09T03:44:30;100367.38;;;16.06;75.20
41945;BME280;63122;52.424;13.458;2022-09-09T03:47:03;100368.56;;;15.96;75.83
41945;BME280;63122;52.424;13.458;2022-09-09T03:49:33;100374.44;;;15.92;76.55
41945;BME280;63122;52.424;13.458;2022-09-09T03:52:03;100362.91;;;15.84;76.78
41945;BME280;63122;52.424;13.458;2022-09-09T03:54:33;100369.03;;;15.78;76.82
41945;BME280;63122;52.424;13.458;2022-09-09T03:57:03;100360.88;;;15.87;76.50
41945;BME280;63122;52.424;13.458;2022-09-09T03:59:34;100361.84;;;15.79;76.68
41945;BME280;63122;52.424;13.458;2022-09-09T04:02:07;100366.22;;;15.87;76.46
41945;BME280;63122;52.424;13.458;2022-09-09T04:04:38;100365.84;;;15.68;77.03
41945;BME280;63122;52.424;13.458;2022-09-09T04:07:07;100356.63;;;15.64;77.38
41945;BME280;63122;52.424;13.458;2022-09-09T04:09:39;100364.69;;;15.77;76.55
41945;BME280;63122;52.424;13.458;2022-09-09T04:12:09;100358.09;;;15.66;77.01
41945;BME280;63122;52.424;13.458;2022-09-09T04:14:40;100356.69;;;15.71;76.71
41945;BME280;63122;52.424;13.458;2022-09-09T04:17:12;100360.88;;;15.58;77.66
41945;BME280;63122;52.424;13.458;2022-09-09T04:19:43;100361.78;;;15.94;75.87
41945;BME280;63122;52.424;13.458;2022-09-09T04:22:13;100371.84;;;15.98;75.45
41945;BME280;63122;52.424;13.458;2022-09-09T04:24:43;100366.72;;;15.75;75.72
41945;BME280;63122;52.424;13.458;2022-09-09T04:27:15;100379.81;;;15.98;74.93
41945;BME280;63122;52.424;13.458;2022-09-09T04:29:44;100370.75;;;15.64;75.78
41945;BME280;63122;52.424;13.458;2022-09-09T04:32:17;100369.53;;;15.89;74.94
41945;BME280;63122;52.424;13.458;2022-09-09T04:34:48;100377.97;;;15.71;75.29
41945;BME280;63122;52.424;13.458;2022-09-09T04:37:18;100377.34;;;15.97;75.00
41945;BME280;63122;52.424;13.458;2022-09-09T04:39:48;100379.06;;;15.83;74.82
41945;BME280;63122;52.424;13.458;2022-09-09T04:42:18;100383.91;;;15.94;74.20
41945;BME280;63122;52.424;13.458;2022-09-09T04:44:48;100386.47;;;15.88;74.49
41945;BME280;63122;52.424;13.458;2022-09-09T04:47:21;100392.13;;;15.78;74.51
41945;BME280;63122;52.424;13.458;2022-09-09T04:49:52;100388.78;;;15.47;76.12
41945;BME280;63122;52.424;13.458;2022-09-09T04:52:22;100387.50;;;15.36;76.73
41945;BME280;63122;52.424;13.458;2022-09-09T04:54:52;100396.34;;;15.44;76.59
41945;BME280;63122;52.424;13.458;2022-09-09T04:57:24;100390.88;;;15.52;76.13
41945;BME280;63122;52.424;13.458;2022-09-09T04:59:54;100389.94;;;15.60;75.83
41945;BME280;63122;52.424;13.458;2022-09-09T05:02:27;100392.53;;;15.53;76.19
41945;BME280;63122;52.424;13.458;2022-09-09T05:04:57;100397.91;;;15.60;76.27
41945;BME280;63122;52.424;13.458;2022-09-09T05:07:28;100395.34;;;15.73;75.74
41945;BME280;63122;52.424;13.458;2022-09-09T05:09:58;100396.44;;;15.57;75.93
41945;BME280;63122;52.424;13.458;2022-09-09T05:12:28;100401.06;;;15.70;75.62
41945;BME280;63122;52.424;13.458;2022-09-09T05:14:59;100401.72;;;15.50;76.36
41945;BME280;63122;52.424;13.458;2022-09-09T05:17:31;100400.59;;;15.88;75.32
41945;BME280;63122;52.424;13.458;2022-09-09T05:20:02;100400.63;;;15.66;75.88
41945;BME280;63122;52.424;13.458;2022-09-09T05:22:37;100399.66;;;15.96;74.53
41945;BME280;63122;52.424;13.458;2022-09-09T05:25:08;100403.25;;;15.88;75.02
41945;BME280;63122;52.424;13.458;2022-09-09T05:27:38;100410.50;;;15.94;74.71
41945;BME280;63122;52.424;13.458;2022-09-09T05:30:09;100392.75;;;16.02;74.64
41945;BME280;63122;52.424;13.458;2022-09-09T05:32:42;100394.44;;;16.16;74.37
41945;BME280;63122;52.424;13.458;2022-09-09T05:35:12;100403.91;;;16.19;73.98
41945;BME280;63122;52.424;13.458;2022-09-09T05:37:42;100396.34;;;15.94;74.92
41945;BME280;63122;52.424;13.458;2022-09-09T05:40:13;100401.81;;;16.14;74.11
41945;BME280;63122;52.424;13.458;2022-09-09T05:42:43;100405.63;;;16.33;73.90
41945;BME280;63122;52.424;13.458;2022-09-09T05:45:13;100401.50;;;16.31;73.96
41945;BME280;63122;52.424;13.458;2022-09-09T05:47:51;100401.50;;;16.31;74.15
41945;BME280;63122;52.424;13.458;2022-09-09T05:50:22;100416.81;;;16.22;74.92
41945;BME280;63122;52.424;13.458;2022-09-09T05:52:57;100403.19;;;16.38;74.00
41945;BME280;63122;52.424;13.458;2022-09-09T05:55:27;100405.03;;;16.38;74.05
41945;BME280;63122;52.424;13.458;2022-09-09T05:57:58;100409.66;;;16.22;75.46
41945;BME280;63122;52.424;13.458;2022-09-09T06:00:28;100408.41;;;16.53;74.21
41945;BME280;63122;52.424;13.458;2022-09-09T06:03:01;100420.59;;;16.41;74.52
41945;BME280;63122;52.424;13.458;2022-09-09T06:05:31;100420.59;;;16.34;75.07
41945;BME280;63122;52.424;13.458;2022-09-09T06:08:02;100421.38;;;16.35;74.90
41945;BME280;63122;52.424;13.458;2022-09-09T06:10:32;100420.78;;;16.33;75.11
41945;BME280;63122;52.424;13.458;2022-09-09T06:13:02;100428.19;;;16.09;75.55
41945;BME280;63122;52.424;13.458;2022-09-09T06:15:32;100419.69;;;16.20;75.71
41945;BME280;63122;52.424;13.458;2022-09-09T06:18:08;100426.44;;;16.23;75.32
41945;BME280;63122;52.424;13.458;2022-09-09T06:20:39;100426.25;;;15.96;77.05
41945;BME280;63122;52.424;13.458;2022-09-09T06:23:09;100423.34;;;16.19;75.81
41945;BME280;63122;52.424;13.458;2022-09-09T06:25:40;100423.88;;;16.36;75.13
41945;BME280;63122;52.424;13.458;2022-09-09T06:28:13;100423.75;;;16.51;74.85
41945;BME280;63122;52.424;13.458;2022-09-09T06:30:59;100429.28;;;16.57;75.73
41945;BME280;63122;52.424;13.458;2022-09-09T06:33:35;100432.94;;;16.49;75.43
41945;BME280;63122;52.424;13.458;2022-09-09T06:36:11;100429.50;;;16.20;77.36
41945;BME280;63122;52.424;13.458;2022-09-09T06:38:42;100433.00;;;16.27;77.15
41945;BME280;63122;52.424;13.458;2022-09-09T06:41:17;100433.38;;;16.52;76.29
41945;BME280;63122;52.424;13.458;2022-09-09T06:43:48;100435.75;;;16.40;76.77
41945;BME280;63122;52.424;13.458;2022-09-09T06:46:20;100442.56;;;16.50;75.69
41945;BME280;63122;52.424;13.458;2022-09-09T06:48:57;100426.19;;;16.53;75.68
41945;BME280;63122;52.424;13.458;2022-09-09T06:51:30;100427.47;;;16.64;74.91
41945;BME280;63122;52.424;13.458;2022-09-09T06:54:02;100433.59;;;16.58;76.18
41945;BME280;63122;52.424;13.458;2022-09-09T06:56:35;100442.78;;;16.48;76.67
41945;BME280;63122;52.424;13.458;2022-09-09T06:59:07;100428.94;;;16.66;75.50
41945;BME280;63122;52.424;13.458;2022-09-09T07:01:41;100426.97;;;16.89;73.22
41945;BME280;63122;52.424;13.458;2022-09-09T07:04:17;100427.97;;;16.81;73.81
41945;BME280;63122;52.424;13.458;2022-09-09T07:06:48;100440.75;;;16.99;73.44
41945;BME280;63122;52.424;13.458;2022-09-09T07:09:20;100439.13;;;16.98;73.38
41945;BME280;63122;52.424;13.458;2022-09-09T07:11:52;100438.47;;;16.96;73.62
41945;BME280;63122;52.424;13.458;2022-09-09T07:14:24;100438.69;;;16.94;74.26
41945;BME280;63122;52.424;13.458;2022-09-09T07:16:56;100439.56;;;17.02;73.62
41945;BME280;63122;52.424;13.458;2022-09-09T07:19:32;100443.50;;;17.19;73.20
41945;BME280;63122;52.424;13.458;2022-09-09T07:22:07;100439.16;;;17.05;72.21
41945;BME280;63122;52.424;13.458;2022-09-09T07:24:37;100440.19;;;17.04;73.42
41945;BME280;63122;52.424;13.458;2022-09-09T07:27:08;100444.38;;;17.33;72.62
41945;BME280;63122;52.424;13.458;2022-09-09T07:29:38;100442.72;;;17.39;73.05
41945;BME280;63122;52.424;13.458;2022-09-09T07:32:08;100444.00;;;17.77;71.56
41945;BME280;63122;52.424;13.458;2022-09-09T07:34:42;100442.97;;;17.71;69.96
41945;BME280;63122;52.424;13.458;2022-09-09T07:37:13;100445.63;;;17.71;70.82
41945;BME280;63122;52.424;13.458;2022-09-09T07:40:11;100448.94;;;17.66;70.51
41945;BME280;63122;52.424;13.458;2022-09-09T07:42:55;100449.75;;;17.87;69.67
41945;BME280;63122;52.424;13.458;2022-09-09T07:45:26;100460.00;;;17.70;71.00
41945;BME280;63122;52.424;13.458;2022-09-09T07:47:57;100452.44;;;18.07;70.74
41945;BME280;63122;52.424;13.458;2022-09-09T07:50:30;100446.50;;;18.05;69.83
41945;BME280;63122;52.424;13.458;2022-09-09T07:53:00;100454.47;;;18.19;68.41
41945;BME280;63122;52.424;13.458;2022-09-09T07:55:32;100461.25;;;18.08;69.78
41945;BME280;63122;52.424;13.458;2022-09-09T07:58:02;100454.91;;;18.02;69.25
41945;BME280;63122;52.424;13.458;2022-09-09T08:00:32;100454.91;;;18.22;69.04
41945;BME280;63122;52.424;13.458;2022-09-09T08:03:03;100466.75;;;18.40;68.09
41945;BME280;63122;52.424;13.458;2022-09-09T08:05:39;100464.69;;;18.55;68.55
41945;BME280;63122;52.424;13.458;2022-09-09T08:08:12;100459.97;;;18.51;69.45
41945;BME280;63122;52.424;13.458;2022-09-09T08:10:43;100472.25;;;18.72;67.36
41945;BME280;63122;52.424;13.458;2022-09-09T08:13:13;100474.19;;;19.04;66.60
41945;BME280;63122;52.424;13.458;2022-09-09T08:15:44;100478.41;;;18.73;67.04
41945;BME280;63122;52.424;13.458;2022-09-09T08:18:17;100488.44;;;18.84;66.90
41945;BME280;63122;52.424;13.458;2022-09-09T08:20:49;100479.66;;;18.63;66.56
41945;BME280;63122;52.424;13.458;2022-09-09T08:23:21;100472.47;;;18.64;66.15
41945;BME280;63122;52.424;13.458;2022-09-09T08:25:50;100475.97;;;18.71;66.46
41945;BME280;63122;52.424;13.458;2022-09-09T08:28:20;100473.22;;;18.84;65.07
41945;BME280;63122;52.424;13.458;2022-09-09T08:30:50;100475.69;;;18.86;64.50
41945;BME280;63122;52.424;13.458;2022-09-09T08:33:21;100476.50;;;18.87;65.31
41945;BME280;63122;52.424;13.458;2022-09-09T08:35:54;100474.09;;;19.24;63.43
41945;BME280;63122;52.424;13.458;2022-09-09T08:38:25;100478.03;;;19.21;64.26
41945;BME280;63122;52.424;13.458;2022-09-09T08:41:03;100478.25;;;19.20;63.13
41945;BME280;63122;52.424;13.458;2022-09-09T08:43:37;100479.41;;;19.31;62.53
41945;BME280;63122;52.424;13.458;2022-09-09T08:46:13;100473.50;;;19.22;63.30
41945;BME280;63122;52.424;13.458;2022-09-09T08:48:56;100480.13;;;19.12;63.39
41945;BME280;63122;52.424;13.458;2022-09-09T08:51:31;100476.41;;;19.20;64.02
41945;BME280;63122;52.424;13.458;2022-09-09T08:54:03;100478.47;;;19.18;63.84
41945;BME280;63122;52.424;13.458;2022-09-09T08:56:36;100482.19;;;19.17;63.86
41945;BME280;63122;52.424;13.458;2022-09-09T08:59:11;100481.63;;;19.40;62.47
41945;BME280;63122;52.424;13.458;2022-09-09T09:02:00;100481.81;;;19.46;63.88
41945;BME280;63122;52.424;13.458;2022-09-09T09:04:50;100480.97;;;19.77;63.60
41945;BME280;63122;52.424;13.458;2022-09-09T09:07:33;100472.78;;;20.04;63.04
41945;BME280;63122;52.424;13.458;2022-09-09T09:10:13;100483.34;;;20.18;62.89
41945;BME280;63122;52.424;13.458;2022-09-09T09:13:15;100484.59;;;20.40;62.32
41945;BME280;63122;52.424;13.458;2022-09-09T09:15:52;100479.97;;;20.48;62.15
41945;BME280;63122;52.424;13.458;2022-09-09T09:18:28;100483.25;;;20.68;61.76
41945;BME280;63122;52.424;13.458;2022-09-09T09:21:03;100491.78;;;20.84;58.86
41945;BME280;63122;52.424;13.458;2022-09-09T09:23:45;100487.50;;;20.57;58.92
41945;BME280;63122;52.424;13.458;2022-09-09T09:26:19;100479.25;;;20.59;59.11
41945;BME280;63122;52.424;13.458;2022-09-09T09:28:54;100475.53;;;20.97;59.36
41945;BME280;63122;52.424;13.458;2022-09-09T09:31:26;100476.09;;;21.18;58.38
41945;BME280;63122;52.424;13.458;2022-09-09T09:33:56;100476.31;;;21.47;58.07
41945;BME280;63122;52.424;13.458;2022-09-09T09:36:34;100468.00;;;21.49;56.89
41945;BME280;63122;52.424;13.458;2022-09-09T09:39:07;100479.53;;;21.37;56.78
41945;BME280;63122;52.424;13.458;2022-09-09T09:41:57;100483.22;;;21.55;56.41
41945;BME280;63122;52.424;13.458;2022-09-09T09:44:32;100481.53;;;21.72;56.31
41945;BME280;63122;52.424;13.458;2022-09-09T09:47:08;100477.31;;;21.77;54.69
41945;BME280;63122;52.424;13.458;2022-09-09T09:49:54;100481.78;;;21.71;54.73
41945;BME280;63122;52.424;13.458;2022-09-09T09:52:37;100473.88;;;22.00;53.72
41945;BME280;63122;52.424;13.458;2022-09-09T09:55:14;100471.44;;;22.46;53.66
41945;BME280;63122;52.424;13.458;2022-09-09T09:57:47;100475.22;;;22.74;52.67
41945;BME280;63122;52.424;13.458;2022-09-09T10:00:19;100468.06;;;22.92;51.27
41945;BME280;63122;52.424;13.458;2022-09-09T10:02:52;100472.78;;;22.61;52.13
41945;BME280;63122;52.424;13.458;2022-09-09T10:05:24;100473.03;;;22.59;53.55
41945;BME280;63122;52.424;13.458;2022-09-09T10:08:03;100479.66;;;22.80;53.14
41945;BME280;63122;52.424;13.458;2022-09-09T10:10:45;100476.13;;;23.33;52.12
41945;BME280;63122;52.424;13.458;2022-09-09T10:13:21;100475.81;;;23.80;51.26
41945;BME280;63122;52.424;13.458;2022-09-09T10:16:05;100477.56;;;24.04;49.63
41945;BME280;63122;52.424;13.458;2022-09-09T10:18:57;100477.69;;;23.46;49.53
41945;BME280;63122;52.424;13.458;2022-09-09T10:21:42;100482.38;;;23.09;51.05
41945;BME280;63122;52.424;13.458;2022-09-09T10:24:37;100483.00;;;22.87;51.78
41945;BME280;63122;52.424;13.458;2022-09-09T10:27:20;100486.91;;;23.21;52.43
41945;BME280;63122;52.424;13.458;2022-09-09T10:30:08;100483.75;;;23.70;52.55
41945;BME280;63122;52.424;13.458;2022-09-09T10:32:46;100491.75;;;24.16;49.32
41945;BME280;63122;52.424;13.458;2022-09-09T10:35:25;100485.72;;;23.92;49.77
41945;BME280;63122;52.424;13.458;2022-09-09T10:38:18;100484.66;;;24.10;49.42
41945;BME280;63122;52.424;13.458;2022-09-09T10:41:04;100478.97;;;24.46;48.32
41945;BME280;63122;52.424;13.458;2022-09-09T10:43:56;100481.19;;;23.97;48.97
41945;BME280;63122;52.424;13.458;2022-09-09T10:46:45;100482.19;;;23.74;50.74
41945;BME280;63122;52.424;13.458;2022-09-09T10:49:32;100483.25;;;23.90;50.18
41945;BME280;63122;52.424;13.458;2022-09-09T10:52:15;100479.66;;;23.84;50.11
41945;BME280;63122;52.424;13.458;2022-09-09T10:54:56;100480.13;;;23.98;48.87
41945;BME280;63122;52.424;13.458;2022-09-09T10:57:31;100473.53;;;24.23;49.11
41945;BME280;63122;52.424;13.458;2022-09-09T11:00:13;100481.78;;;24.34;46.91
41945;BME280;63122;52.424;13.458;2022-09-09T11:02:48;100485.53;;;24.55;47.96
41945;BME280;63122;52.424;13.458;2022-09-09T11:05:24;100483.28;;;24.69;47.35
41945;BME280;63122;52.424;13.458;2022-09-09T11:07:59;100490.72;;;24.39;46.36
41945;BME280;63122;52.424;13.458;2022-09-09T11:10:36;100484.03;;;24.64;45.63
41945;BME280;63122;52.424;13.458;2022-09-09T11:13:14;100480.44;;;24.98;45.32
41945;BME280;63122;52.424;13.458;2022-09-09T11:15:50;100472.84;;;25.22;44.98
41945;BME280;63122;52.424;13.458;2022-09-09T11:18:23;100480.31;;;25.70;44.80
41945;BME280;63122;52.424;13.458;2022-09-09T11:20:59;100475.06;;;25.85;43.46
41945;BME280;63122;52.424;13.458;2022-09-09T11:23:37;100480.38;;;26.13;43.40
41945;BME280;63122;52.424;13.458;2022-09-09T11:26:16;100482.19;;;26.45;42.84
41945;BME280;63122;52.424;13.458;2022-09-09T11:28:56;100478.84;;;26.81;42.26
41945;BME280;63122;52.424;13.458;2022-09-09T11:31:44;100485.13;;;26.38;42.31
41945;BME280;63122;52.424;13.458;2022-09-09T11:34:26;100479.50;;;26.50;42.31
41945;BME280;63122;52.424;13.458;2022-09-09T11:37:11;100479.47;;;26.40;42.68
41945;BME280;63122;52.424;13.458;2022-09-09T11:40:01;100474.50;;;26.74;42.05
41945;BME280;63122;52.424;13.458;2022-09-09T11:42:38;100476.25;;;26.48;41.40
41945;BME280;63122;52.424;13.458;2022-09-09T11:45:15;100471.53;;;26.23;42.90
41945;BME280;63122;52.424;13.458;2022-09-09T11:47:55;100471.41;;;26.50;41.80
41945;BME280;63122;52.424;13.458;2022-09-09T11:50:34;100465.94;;;26.98;40.37
41945;BME280;63122;52.424;13.458;2022-09-09T11:53:21;100458.41;;;27.31;39.44
41945;BME280;63122;52.424;13.458;2022-09-09T11:59:20;100457.31;;;27.38;39.19
41945;BME280;63122;52.424;13.458;2022-09-09T12:02:28;100470.84;;;27.22;38.04
41945;BME280;63122;52.424;13.458;2022-09-09T12:05:08;100452.94;;;27.06;39.70
41945;BME280;63122;52.424;13.458;2022-09-09T12:07:42;100454.03;;;27.15;38.63
41945;BME280;63122;52.424;13.458;2022-09-09T12:10:23;100445.38;;;27.18;39.08
41945;BME280;63122;52.424;13.458;2022-09-09T12:13:08;100448.88;;;26.98;38.87
41945;BME280;63122;52.424;13.458;2022-09-09T12:23:52;100427.66;;;26.74;39.89
41945;BME280;63122;52.424;13.458;2022-09-09T12:26:43;100438.84;;;26.93;39.79
41945;BME280;63122;52.424;13.458;2022-09-09T12:29:53;100425.34;;;27.14;39.52
41945;BME280;63122;52.424;13.458;2022-09-09T12:32:42;100425.34;;;27.19;39.57
41945;BME280;63122;52.424;13.458;2022-09-09T12:44:22;100411.84;;;27.35;38.17
41945;BME280;63122;52.424;13.458;2022-09-09T12:47:19;100414.25;;;27.15;37.36
41945;BME280;63122;52.424;13.458;2022-09-09T12:49:55;100411.00;;;27.03;38.89
41945;BME280;63122;52.424;13.458;2022-09-09T12:52:34;100410.72;;;27.20;38.05
41945;BME280;63122;52.424;13.458;2022-09-09T12:55:17;100422.34;;;27.05;37.88
41945;BME280;63122;52.424;13.458;2022-09-09T12:57:49;100415.84;;;27.01;38.10
41945;BME280;63122;52.424;13.458;2022-09-09T13:00:24;100418.59;;;27.11;37.84
41945;BME280;63122;52.424;13.458;2022-09-09T13:02:56;100420.22;;;27.23;37.60
41945;BME280;63122;52.424;13.458;2022-09-09T13:05:33;100426.16;;;27.30;37.41
41945;BME280;63122;52.424;13.458;2022-09-09T13:08:26;100429.16;;;27.23;38.16
41945;BME280;63122;52.424;13.458;2022-09-09T13:11:00;100428.22;;;26.71;38.30
41945;BME280;63122;52.424;13.458;2022-09-09T13:13:36;100431.47;;;26.73;37.93
41945;BME280;63122;52.424;13.458;2022-09-09T13:16:20;100423.53;;;26.51;38.44
41945;BME280;63122;52.424;13.458;2022-09-09T13:18:51;100421.16;;;26.59;38.87
41945;BME280;63122;52.424;13.458;2022-09-09T13:21:31;100420.91;;;26.13;39.39
41945;BME280;63122;52.424;13.458;2022-09-09T13:24:03;100415.47;;;26.02;39.90
41945;BME280;63122;52.424;13.458;2022-09-09T13:26:36;100416.88;;;26.15;40.12
41945;BME280;63122;52.424;13.458;2022-09-09T13:29:15;100406.47;;;26.45;39.23
41945;BME280;63122;52.424;13.458;2022-09-09T13:31:50;100397.91;;;26.69;39.24
41945;BME280;63122;52.424;13.458;2022-09-09T13:34:28;100393.13;;;26.92;37.96
41945;BME280;63122;52.424;13.458;2022-09-09T13:37:00;100396.66;;;27.34;37.47
41945;BME280;63122;52.424;13.458;2022-09-09T13:39:34;100406.13;;;27.26;37.99
41945;BME280;63122;52.424;13.458;2022-09-09T13:42:18;100408.47;;;26.76;38.76
41945;BME280;63122;52.424;13.458;2022-09-09T13:44:52;100398.19;;;26.67;39.23
41945;BME280;63122;52.424;13.458;2022-09-09T13:47:32;100396.38;;;26.88;38.77